createdAt,value
2018-07-08T00:01:32.821Z,7.10
2018-07-08T00:06:29.655Z,7.60
2018-07-08T00:11:27.509Z,10.03
2018-07-08T00:16:24.465Z,7.37
2018-07-08T00:21:21.329Z,9.13
2018-07-08T00:26:18.691Z,7.77
2018-07-08T00:31:15.748Z,7.40
2018-07-08T00:36:12.822Z,8.10
2018-07-08T00:41:09.642Z,12.27
2018-07-08T00:46:06.944Z,6.83
2018-07-08T00:51:03.737Z,6.70
2018-07-08T00:56:01.105Z,6.40
2018-07-08T01:00:57.897Z,7.53
2018-07-08T01:05:55.069Z,8.93
2018-07-08T01:10:52.276Z,6.37
2018-07-08T01:15:49.347Z,6.53
2018-07-08T01:20:46.267Z,6.57
2018-07-08T01:25:49.724Z,6.53
2018-07-08T01:30:46.807Z,7.37
2018-07-08T01:35:43.689Z,7.10
2018-07-08T01:40:40.784Z,9.93
2018-07-08T01:45:37.675Z,6.67
2018-07-08T01:50:34.841Z,8.97
2018-07-08T01:55:31.632Z,7.70
2018-07-08T02:00:28.854Z,6.80
2018-07-08T02:05:25.699Z,7.93
2018-07-08T02:10:22.697Z,8.47
2018-07-08T02:15:19.584Z,7.63
2018-07-08T02:20:16.635Z,8.10
2018-07-08T02:25:13.477Z,7.20
2018-07-08T02:30:11.474Z,8.17
2018-07-08T02:35:08.539Z,7.27
2018-07-08T02:40:05.665Z,7.63
2018-07-08T02:45:02.669Z,9.43
2018-07-08T02:49:59.608Z,8.43
2018-07-08T02:54:56.685Z,7.77
2018-07-08T02:59:53.856Z,8.57
2018-07-08T03:04:50.603Z,8.20
2018-07-08T03:09:47.890Z,9.13
2018-07-08T03:14:44.852Z,8.63
2018-07-08T03:19:41.641Z,7.97
2018-07-08T03:24:38.830Z,8.00
2018-07-08T03:29:35.598Z,8.63
2018-07-08T03:34:33.414Z,7.80
2018-07-08T03:39:30.337Z,7.90
2018-07-08T03:44:27.215Z,7.87
2018-07-08T03:49:24.216Z,8.40
2018-07-08T03:54:26.479Z,7.40
2018-07-08T03:59:23.508Z,9.23
2018-07-08T04:04:20.933Z,8.37
2018-07-08T04:09:18.900Z,7.93
2018-07-08T04:14:15.853Z,7.50
2018-07-08T04:19:12.933Z,8.40
2018-07-08T04:24:09.976Z,9.80
2018-07-08T04:29:07.270Z,8.10
2018-07-08T04:34:04.301Z,8.50
2018-07-08T04:39:01.597Z,8.87
2018-07-08T04:43:58.376Z,10.43
2018-07-08T04:48:55.457Z,10.20
2018-07-08T04:53:52.226Z,7.40
2018-07-08T04:58:50.080Z,9.83
2018-07-08T05:03:46.945Z,7.73
2018-07-08T05:08:44.255Z,7.90
2018-07-08T05:13:40.997Z,8.43
2018-07-08T05:18:38.021Z,8.10
2018-07-08T05:23:34.778Z,8.30
2018-07-08T05:28:31.833Z,8.67
2018-07-08T05:33:28.653Z,8.53
2018-07-08T05:38:25.857Z,8.27
2018-07-08T05:43:22.585Z,8.20
2018-07-08T05:48:19.515Z,9.17
2018-07-08T05:53:16.372Z,9.90
2018-07-08T05:58:13.495Z,8.87
2018-07-08T06:03:10.257Z,10.10
2018-07-08T06:08:07.423Z,9.73
2018-07-08T06:13:04.905Z,12.13
2018-07-08T06:18:01.660Z,10.27
2018-07-08T06:22:58.818Z,9.17
2018-07-08T06:27:55.876Z,8.73
2018-07-08T06:32:53.849Z,8.37
2018-07-08T06:37:51.178Z,10.97
2018-07-08T06:42:48.202Z,8.13
2018-07-08T06:47:45.045Z,7.73
2018-07-08T06:52:42.134Z,8.70
2018-07-08T06:57:38.916Z,10.82
2018-07-08T07:02:36.065Z,8.87
2018-07-08T07:07:32.855Z,8.35
2018-07-08T07:12:29.734Z,7.08
2018-07-08T07:17:27.073Z,7.92
2018-07-08T07:22:23.875Z,5.62
2018-07-08T07:27:21.072Z,8.23
2018-07-08T07:32:17.902Z,7.10
2018-07-08T07:37:15.578Z,9.85
2018-07-08T07:42:12.359Z,6.65
2018-07-08T07:47:09.453Z,6.30
2018-07-08T07:52:06.323Z,9.13
2018-07-08T07:57:03.519Z,4.60
2018-07-08T08:02:00.638Z,5.75
2018-07-08T08:06:57.377Z,6.85
2018-07-08T08:11:54.350Z,4.00
2018-07-08T08:16:51.421Z,4.72
2018-07-08T08:21:48.683Z,4.05
2018-07-08T08:26:45.492Z,3.60
2018-07-08T08:31:42.503Z,6.05
2018-07-08T08:36:39.390Z,3.80
2018-07-08T08:41:37.130Z,4.58
2018-07-08T08:46:33.886Z,6.72
2018-07-08T08:51:31.389Z,3.75
2018-07-08T08:56:28.139Z,3.50
2018-07-08T09:01:25.223Z,4.42
2018-07-08T09:06:21.978Z,3.95
2018-07-08T09:11:18.942Z,3.20
2018-07-08T09:16:16.873Z,3.00
2018-07-08T09:21:13.881Z,4.05
2018-07-08T09:26:10.638Z,4.83
2018-07-08T09:31:08.107Z,2.37
2018-07-08T09:36:05.378Z,3.83
2018-07-08T09:41:02.199Z,5.47
2018-07-08T09:45:59.685Z,5.03
2018-07-08T09:50:56.480Z,7.40
2018-07-08T09:55:54.253Z,2.83
2018-07-08T10:00:51.011Z,4.03
2018-07-08T10:05:48.175Z,6.97
2018-07-08T10:10:45.094Z,2.60
2018-07-08T10:15:42.084Z,3.90
2018-07-08T10:20:38.908Z,2.75
2018-07-08T10:25:35.997Z,2.60
2018-07-08T10:30:32.859Z,4.97
2018-07-08T10:35:35.571Z,2.92
2018-07-08T10:40:33.385Z,2.42
2018-07-08T10:45:30.206Z,2.27
2018-07-08T10:50:27.491Z,1.98
2018-07-08T10:55:24.340Z,3.37
2018-07-08T11:00:22.347Z,1.55
2018-07-08T11:05:19.186Z,2.55
2018-07-08T11:10:16.483Z,4.47
2018-07-08T11:15:13.958Z,2.62
2018-07-08T11:20:10.762Z,17.48
2018-07-08T11:25:07.889Z,2.70
2018-07-08T11:30:05.191Z,2.12
2018-07-08T11:35:02.038Z,3.67
2018-07-08T11:39:59.057Z,1.60
2018-07-08T11:44:55.890Z,2.00
2018-07-08T11:49:52.723Z,3.95
2018-07-08T11:54:49.679Z,1.85
2018-07-08T11:59:46.701Z,1.77
2018-07-08T12:04:43.890Z,1.50
2018-07-08T12:09:40.748Z,1.65
2018-07-08T12:14:38.151Z,1.52
2018-07-08T12:19:34.818Z,1.50
2018-07-08T12:24:31.729Z,2.40
2018-07-08T12:29:29.505Z,3.40
2018-07-08T12:34:26.333Z,1.82
2018-07-08T12:39:23.642Z,0.90
2018-07-08T12:44:20.641Z,3.25
2018-07-08T12:49:17.750Z,1.27
2018-07-08T12:54:15.516Z,1.17
2018-07-08T12:59:12.454Z,5.05
2018-07-08T13:04:09.483Z,2.75
2018-07-08T13:09:06.387Z,1.00
2018-07-08T13:14:03.537Z,0.90
2018-07-08T13:19:00.425Z,6.05
2018-07-08T13:23:57.418Z,1.40
2018-07-08T13:28:54.597Z,1.35
2018-07-08T13:33:51.373Z,1.42
2018-07-08T13:38:48.610Z,2.22
2018-07-08T13:43:45.474Z,1.30
2018-07-08T13:48:42.971Z,2.02
2018-07-08T13:53:39.803Z,2.08
2018-07-08T13:58:36.763Z,2.15
2018-07-08T14:03:33.510Z,1.70
2018-07-08T14:08:30.695Z,1.20
2018-07-08T14:13:27.639Z,1.20
2018-07-08T14:18:24.887Z,1.35
2018-07-08T14:23:21.791Z,1.40
2018-07-08T14:28:18.947Z,1.37
2018-07-08T14:33:15.689Z,2.30
2018-07-08T14:38:13.484Z,1.85
2018-07-08T14:43:10.305Z,1.72
2018-07-08T14:48:07.532Z,1.40
2018-07-08T14:53:04.415Z,2.27
2018-07-08T14:58:01.668Z,1.82
2018-07-08T15:02:58.630Z,3.65
2018-07-08T15:07:55.505Z,4.00
2018-07-08T15:12:52.433Z,3.42
2018-07-08T15:17:49.220Z,3.52
2018-07-08T15:22:46.169Z,4.97
2018-07-08T15:27:43.415Z,2.22
2018-07-08T15:32:40.251Z,2.47
2018-07-08T15:37:38.472Z,2.17
2018-07-08T15:42:36.039Z,2.00
2018-07-08T15:47:33.272Z,1.90
2018-07-08T15:52:30.469Z,3.45
2018-07-08T15:57:28.154Z,2.17
2018-07-08T16:02:25.658Z,3.30
2018-07-08T16:07:22.453Z,2.87
2018-07-08T16:12:19.672Z,2.65
2018-07-08T16:17:16.497Z,4.00
2018-07-08T16:22:13.592Z,3.22
2018-07-08T16:27:10.378Z,6.20
2018-07-08T16:32:07.416Z,3.45
2018-07-08T16:37:04.429Z,2.42
2018-07-08T16:42:01.548Z,3.52
2018-07-08T16:46:58.847Z,3.40
2018-07-08T16:51:55.677Z,3.42
2018-07-08T16:56:52.855Z,3.05
2018-07-08T17:01:50.013Z,2.25
2018-07-08T17:06:47.092Z,2.08
2018-07-08T17:11:44.130Z,1.92
2018-07-08T17:16:41.118Z,3.65
2018-07-08T17:21:37.917Z,2.77
2018-07-08T17:26:35.641Z,3.40
2018-07-08T17:31:32.798Z,2.35
2018-07-08T17:36:29.636Z,2.55
2018-07-08T17:41:26.628Z,2.58
2018-07-08T17:46:23.974Z,1.72
2018-07-08T17:51:20.732Z,2.45
2018-07-08T17:56:17.715Z,3.72
2018-07-08T18:01:15.401Z,2.05
2018-07-08T18:06:12.935Z,3.12
2018-07-08T18:11:09.941Z,2.17
2018-07-08T18:16:06.760Z,4.63
2018-07-08T18:21:03.669Z,4.20
2018-07-08T18:26:00.483Z,2.98
2018-07-08T18:30:57.699Z,4.75
2018-07-08T18:35:54.495Z,5.65
2018-07-08T18:40:51.575Z,4.05
2018-07-08T18:45:48.687Z,6.30
2018-07-08T18:50:45.458Z,4.95
2018-07-08T18:55:42.692Z,5.72
2018-07-08T19:00:39.670Z,5.67
2018-07-08T19:05:36.662Z,6.62
2018-07-08T19:10:33.688Z,6.35
2018-07-08T19:15:30.548Z,4.45
2018-07-08T19:20:27.805Z,6.25
2018-07-08T19:25:25.629Z,4.03
2018-07-08T19:30:22.974Z,13.35
2018-07-08T19:35:19.770Z,8.88
2018-07-08T19:40:16.940Z,8.58
2018-07-08T19:45:13.856Z,6.20
2018-07-08T19:50:11.025Z,8.73
2018-07-08T19:55:07.781Z,5.25
2018-07-08T20:00:04.985Z,6.20
2018-07-08T20:05:02.329Z,5.37
2018-07-08T20:09:59.488Z,5.47
2018-07-08T20:14:56.293Z,4.72
2018-07-08T20:19:53.631Z,7.45
2018-07-08T20:24:50.066Z,6.47
2018-07-08T20:29:47.242Z,5.83
2018-07-08T20:34:44.155Z,7.05
2018-07-08T20:39:41.205Z,5.55
2018-07-08T20:44:38.547Z,6.67
2018-07-08T20:49:35.692Z,5.60
2018-07-08T20:54:32.984Z,6.42
2018-07-08T20:59:29.736Z,7.87
2018-07-08T21:04:26.901Z,7.28
2018-07-08T21:09:23.772Z,7.35
2018-07-08T21:14:20.926Z,7.17
2018-07-08T21:19:17.733Z,6.85
2018-07-08T21:24:15.750Z,5.37
2018-07-08T21:29:12.803Z,5.80
2018-07-08T21:34:09.889Z,7.80
2018-07-08T21:39:07.631Z,6.28
2018-07-08T21:44:04.689Z,6.10
2018-07-08T21:49:02.155Z,4.65
2018-07-08T21:53:59.377Z,5.03
2018-07-08T21:58:56.340Z,6.65
2018-07-08T22:03:53.722Z,7.10
2018-07-08T22:08:50.511Z,16.85
2018-07-08T22:13:47.632Z,15.85
2018-07-08T22:18:44.432Z,8.05
2018-07-08T22:23:41.478Z,9.73
2018-07-08T22:28:38.747Z,8.35
2018-07-08T22:33:35.622Z,14.83
2018-07-08T22:38:32.647Z,11.53
2018-07-08T22:43:29.810Z,13.55
2018-07-08T22:48:26.542Z,9.88
2018-07-08T22:53:24.143Z,7.03
2018-07-08T22:58:20.944Z,7.25
2018-07-08T23:03:53.409Z,10.03
2018-07-08T23:08:50.848Z,7.17
2018-07-08T23:13:48.987Z,7.20
2018-07-08T23:18:45.899Z,17.55
2018-07-08T23:23:43.214Z,17.85
2018-07-08T23:28:40.097Z,7.03
2018-07-08T23:33:37.187Z,8.83
2018-07-08T23:38:34.227Z,6.50
2018-07-08T23:43:31.678Z,7.87
2018-07-08T23:48:28.474Z,6.90
2018-07-08T23:53:26.715Z,7.00
2018-07-08T23:58:23.630Z,11.33
